createdAt,value
2022-09-30T00:02:25.585Z,100094.69
2022-09-30T00:04:53.086Z,100094.53
2022-09-30T00:07:20.598Z,100095.88
2022-09-30T00:09:48.657Z,100096.03
2022-09-30T00:12:16.215Z,100096.38
2022-09-30T00:14:43.720Z,100098.38
2022-09-30T00:17:11.233Z,100094.06
2022-09-30T00:19:40.413Z,100107.75
2022-09-30T00:22:07.927Z,100111.97
2022-09-30T00:24:35.419Z,100112.34
2022-09-30T00:27:02.967Z,100113.84
2022-09-30T00:29:30.465Z,100104.00
2022-09-30T00:31:58.075Z,100110.28
2022-09-30T00:34:25.628Z,100108.59
2022-09-30T00:36:55.500Z,100107.56
2022-09-30T00:39:25.905Z,100108.50
2022-09-30T00:41:54.853Z,100103.66
2022-09-30T00:44:47.827Z,100106.97
2022-09-30T00:47:46.335Z,100104.88
2022-09-30T00:50:21.933Z,100108.13
2022-09-30T00:52:53.720Z,100110.31
2022-09-30T00:55:27.658Z,100107.97
2022-09-30T00:57:56.264Z,100111.25
2022-09-30T01:00:23.837Z,100116.59
2022-09-30T01:02:51.416Z,100101.50
2022-09-30T01:05:20.191Z,100109.84
2022-09-30T01:07:48.886Z,100102.19
2022-09-30T01:10:17.883Z,100105.31
2022-09-30T01:12:45.678Z,100116.28
2022-09-30T01:15:13.329Z,100112.03
2022-09-30T01:17:49.338Z,100118.03
2022-09-30T01:20:38.913Z,100116.81
2022-09-30T01:23:28.306Z,100123.28
2022-09-30T01:26:18.058Z,100119.72
2022-09-30T01:29:06.915Z,100123.16
2022-09-30T01:31:47.879Z,100121.47
2022-09-30T01:34:18.591Z,100114.25
2022-09-30T01:37:00.855Z,100111.22
2022-09-30T01:39:36.942Z,100116.56
2022-09-30T01:42:10.252Z,100118.91
2022-09-30T01:44:40.666Z,100114.25
2022-09-30T01:47:13.756Z,100136.75
2022-09-30T01:49:45.399Z,100119.44
2022-09-30T01:52:16.391Z,100125.44
2022-09-30T01:54:48.033Z,100116.94
2022-09-30T01:57:18.907Z,100116.09
2022-09-30T01:59:48.707Z,100119.81
2022-09-30T02:02:20.048Z,100129.84
2022-09-30T02:04:51.716Z,100119.81
2022-09-30T02:07:25.011Z,100119.66
2022-09-30T02:09:55.729Z,100129.69
2022-09-30T02:12:27.226Z,100135.22
2022-09-30T02:14:58.903Z,100124.66
2022-09-30T02:17:31.051Z,100126.22
2022-09-30T02:20:01.456Z,100120.34
2022-09-30T02:22:33.018Z,100125.69
2022-09-30T02:25:03.344Z,100125.31
2022-09-30T02:27:34.346Z,100130.94
2022-09-30T02:30:03.984Z,100115.88
2022-09-30T02:32:36.450Z,100127.81
2022-09-30T02:35:07.208Z,100127.25
2022-09-30T02:37:36.900Z,100133.19
2022-09-30T02:40:07.999Z,100132.69
2022-09-30T02:42:35.690Z,100136.09
2022-09-30T02:45:08.550Z,100130.59
2022-09-30T02:47:49.252Z,100120.06
2022-09-30T02:50:21.469Z,100126.03
2022-09-30T02:52:57.948Z,100124.94
2022-09-30T02:55:30.454Z,100129.66
2022-09-30T02:58:01.847Z,100134.16
2022-09-30T03:00:30.215Z,100138.59
2022-09-30T03:03:00.683Z,100137.47
2022-09-30T03:05:28.705Z,100140.28
2022-09-30T03:07:56.531Z,100142.59
2022-09-30T03:10:24.222Z,100146.91
2022-09-30T03:13:06.836Z,100149.50
2022-09-30T03:15:43.066Z,100148.44
2022-09-30T03:18:36.530Z,100150.41
2022-09-30T03:21:09.880Z,100147.00
2022-09-30T03:24:08.049Z,100157.59
2022-09-30T03:26:40.998Z,100153.41
2022-09-30T03:29:15.221Z,100157.09
2022-09-30T03:31:51.879Z,100158.78
2022-09-30T03:34:23.672Z,100169.47
2022-09-30T03:37:03.895Z,100170.84
2022-09-30T03:39:41.468Z,100171.38
2022-09-30T03:42:12.592Z,100172.28
2022-09-30T03:44:42.323Z,100168.53
2022-09-30T03:47:11.552Z,100169.75
2022-09-30T03:49:41.359Z,100172.34
2022-09-30T03:52:10.428Z,100172.06
2022-09-30T03:54:46.747Z,100169.22
2022-09-30T03:57:15.010Z,100178.66
2022-09-30T03:59:42.530Z,100172.47
2022-09-30T04:02:13.113Z,100169.34
2022-09-30T04:04:42.750Z,100178.22
2022-09-30T04:07:10.811Z,100172.03
2022-09-30T04:09:38.751Z,100179.25
2022-09-30T04:12:07.235Z,100178.19
2022-09-30T04:14:35.722Z,100184.53
2022-09-30T04:17:03.807Z,100188.41
2022-09-30T04:19:31.335Z,100179.47
2022-09-30T04:22:00.455Z,100182.31
2022-09-30T04:24:27.939Z,100183.00
2022-09-30T04:26:55.432Z,100191.84
2022-09-30T04:29:23.028Z,100186.13
2022-09-30T04:31:50.725Z,100186.19
2022-09-30T04:34:18.262Z,100183.50
2022-09-30T04:36:46.203Z,100198.19
2022-09-30T04:39:15.198Z,100184.72
2022-09-30T04:41:43.072Z,100192.75
2022-09-30T04:44:10.579Z,100193.88
2022-09-30T04:46:38.142Z,100197.84
2022-09-30T04:49:09.022Z,100203.84
2022-09-30T04:51:38.331Z,100207.59
2022-09-30T04:54:06.025Z,100208.72
2022-09-30T04:56:36.044Z,100217.00
2022-09-30T04:59:03.638Z,100228.28
2022-09-30T05:01:31.167Z,100222.22
2022-09-30T05:03:58.651Z,100230.84
2022-09-30T05:06:26.430Z,100228.47
2022-09-30T05:08:53.965Z,100235.75
2022-09-30T05:11:23.047Z,100237.13
2022-09-30T05:13:51.922Z,100246.50
2022-09-30T05:16:19.904Z,100241.19
2022-09-30T05:18:47.611Z,100245.88
2022-09-30T05:21:16.777Z,100247.34
2022-09-30T05:23:44.337Z,100242.88
2022-09-30T05:26:12.752Z,100250.41
2022-09-30T05:28:40.643Z,100248.59
2022-09-30T05:31:09.847Z,100242.97
2022-09-30T05:33:37.467Z,100243.25
2022-09-30T05:36:07.419Z,100250.34
2022-09-30T05:38:35.594Z,100243.81
2022-09-30T05:41:08.276Z,100249.47
2022-09-30T05:43:35.887Z,100242.56
2022-09-30T05:46:03.384Z,100251.25
2022-09-30T05:48:32.470Z,100253.00
2022-09-30T05:51:01.581Z,100257.88
2022-09-30T05:53:30.026Z,100255.25
2022-09-30T05:55:57.573Z,100257.69
2022-09-30T05:58:25.363Z,100259.38
2022-09-30T06:00:52.853Z,100267.28
2022-09-30T06:03:20.391Z,100270.81
2022-09-30T06:05:49.475Z,100277.97
2022-09-30T06:08:17.052Z,100283.19
2022-09-30T06:10:45.576Z,100278.53
2022-09-30T06:13:13.283Z,100292.91
2022-09-30T06:15:41.327Z,100298.69
2022-09-30T06:18:09.951Z,100305.13
2022-09-30T06:20:37.670Z,100299.72
2022-09-30T06:23:06.510Z,100296.88
2022-09-30T06:25:35.022Z,100303.41
2022-09-30T06:28:02.920Z,100307.41
2022-09-30T06:30:34.864Z,100314.69
2022-09-30T06:33:02.899Z,100315.22
2022-09-30T06:35:30.451Z,100316.59
2022-09-30T06:37:57.960Z,100319.28
2022-09-30T06:40:26.855Z,100320.63
2022-09-30T06:42:59.919Z,100321.94
2022-09-30T06:45:32.703Z,100323.44
2022-09-30T06:48:01.727Z,100322.19
2022-09-30T06:50:30.805Z,100320.94
2022-09-30T06:52:59.153Z,100320.44
2022-09-30T06:55:28.292Z,100323.84
2022-09-30T06:57:56.994Z,100323.44
2022-09-30T07:00:25.139Z,100317.81
2022-09-30T07:02:53.731Z,100315.00
2022-09-30T07:05:21.243Z,100314.78
2022-09-30T07:07:49.075Z,100312.44
2022-09-30T07:10:16.769Z,100314.06
2022-09-30T07:12:45.611Z,100318.25
2022-09-30T07:15:13.951Z,100322.91
2022-09-30T07:17:41.574Z,100324.13
2022-09-30T07:20:09.656Z,100319.50
2022-09-30T07:22:37.151Z,100324.91
2022-09-30T07:25:06.968Z,100323.59
2022-09-30T07:27:34.811Z,100321.53
2022-09-30T07:30:10.238Z,100313.50
2022-09-30T07:32:39.435Z,100311.06
2022-09-30T07:35:07.414Z,100312.72
2022-09-30T07:37:36.090Z,100314.50
2022-09-30T07:40:05.788Z,100308.81
2022-09-30T07:42:33.742Z,100308.66
2022-09-30T07:45:02.587Z,100310.19
2022-09-30T07:47:30.071Z,100300.19
2022-09-30T07:49:57.752Z,100294.78
2022-09-30T07:52:25.239Z,100303.94
2022-09-30T07:54:52.740Z,100304.47
2022-09-30T07:57:21.585Z,100307.53
2022-09-30T07:59:49.123Z,100310.66
2022-09-30T08:02:19.957Z,100308.31
2022-09-30T08:04:48.165Z,100307.69
2022-09-30T08:07:17.428Z,100304.16
2022-09-30T08:09:45.014Z,100300.84
2022-09-30T08:12:12.625Z,100300.41
2022-09-30T08:14:40.145Z,100307.97
2022-09-30T08:17:07.649Z,100310.41
2022-09-30T08:19:37.104Z,100310.84
2022-09-30T08:22:06.273Z,100306.78
2022-09-30T08:24:33.839Z,100304.75
2022-09-30T08:27:01.403Z,100301.09
2022-09-30T08:29:53.410Z,100306.78
2022-09-30T08:32:16.659Z,100306.06
2022-09-30T08:34:45.954Z,100301.81
2022-09-30T08:37:13.476Z,100308.00
2022-09-30T08:39:42.341Z,100311.13
2022-09-30T08:42:42.403Z,100324.50
2022-09-30T08:45:21.202Z,100319.34
2022-09-30T08:47:54.284Z,100324.72
2022-09-30T08:50:29.541Z,100320.59
2022-09-30T08:53:01.007Z,100324.81
2022-09-30T08:55:34.720Z,100320.06
2022-09-30T08:58:03.694Z,100328.13
2022-09-30T09:00:31.346Z,100315.31
2022-09-30T09:03:00.530Z,100323.06
2022-09-30T09:05:50.093Z,100325.31
2022-09-30T09:08:26.720Z,100322.88
2022-09-30T09:11:00.858Z,100329.00
2022-09-30T09:13:40.947Z,100324.28
2022-09-30T09:16:11.633Z,100318.50
2022-09-30T09:18:55.064Z,100320.78
2022-09-30T09:21:27.329Z,100318.78
2022-09-30T09:23:58.622Z,100315.66
2022-09-30T09:26:27.240Z,100308.53
2022-09-30T09:29:04.740Z,100314.31
2022-09-30T09:31:32.411Z,100317.25
2022-09-30T09:34:02.888Z,100310.81
2022-09-30T09:36:45.448Z,100318.19
2022-09-30T09:39:22.383Z,100324.03
2022-09-30T09:41:53.941Z,100316.63
2022-09-30T09:44:26.894Z,100311.31
2022-09-30T09:46:56.876Z,100315.88
2022-09-30T09:49:31.023Z,100317.59
2022-09-30T09:52:12.658Z,100319.59
2022-09-30T09:54:42.210Z,100318.34
2022-09-30T09:57:10.853Z,100309.91
2022-09-30T09:59:39.331Z,100312.63
2022-09-30T10:02:23.160Z,100310.97
2022-09-30T10:04:59.871Z,100297.84
2022-09-30T10:07:30.125Z,100305.75
2022-09-30T10:10:09.923Z,100305.25
2022-09-30T10:12:37.488Z,100313.25
2022-09-30T10:15:21.919Z,100319.00
2022-09-30T10:17:57.303Z,100320.69
2022-09-30T10:20:29.060Z,100318.78
2022-09-30T10:23:10.474Z,100327.44
2022-09-30T10:25:37.996Z,100332.72
2022-09-30T10:28:21.885Z,100323.81
2022-09-30T10:30:51.905Z,100334.25
2022-09-30T10:33:23.390Z,100329.63
2022-09-30T10:36:07.242Z,100334.81
2022-09-30T10:38:37.188Z,100324.97
2022-09-30T10:41:06.092Z,100322.81
2022-09-30T10:43:41.655Z,100330.25
2022-09-30T10:46:27.187Z,100336.59
2022-09-30T10:48:56.451Z,100319.69
2022-09-30T10:51:27.553Z,100313.13
2022-09-30T10:53:57.178Z,100314.66
2022-09-30T10:56:46.075Z,100316.84
2022-09-30T10:59:28.272Z,100322.81
2022-09-30T11:02:00.876Z,100315.06
2022-09-30T11:04:33.490Z,100313.25
2022-09-30T11:07:14.589Z,100306.72
2022-09-30T11:09:48.292Z,100317.78
2022-09-30T11:12:23.211Z,100312.75
2022-09-30T11:14:57.518Z,100303.13
2022-09-30T11:17:30.034Z,100303.97
2022-09-30T11:20:07.397Z,100299.00
2022-09-30T11:22:40.408Z,100296.19
2022-09-30T11:25:13.918Z,100299.81
2022-09-30T11:27:49.790Z,100294.75
2022-09-30T11:30:20.099Z,100286.81
2022-09-30T11:32:59.143Z,100281.50
2022-09-30T11:35:34.840Z,100283.13
2022-09-30T11:38:11.111Z,100278.28
2022-09-30T11:40:44.196Z,100269.13
2022-09-30T11:43:20.787Z,100267.47
2022-09-30T11:46:04.276Z,100269.91
2022-09-30T11:48:42.104Z,100269.91
2022-09-30T11:51:18.513Z,100268.00
2022-09-30T11:53:51.196Z,100272.56
2022-09-30T11:56:32.829Z,100263.91
2022-09-30T11:59:01.923Z,100269.56
2022-09-30T12:01:33.544Z,100254.94
2022-09-30T12:04:05.252Z,100260.97
2022-09-30T12:06:35.736Z,100256.63
2022-09-30T12:09:10.695Z,100254.13
2022-09-30T12:11:44.348Z,100255.78
2022-09-30T12:14:15.941Z,100251.47
2022-09-30T12:16:43.672Z,100240.22
2022-09-30T12:19:15.863Z,100249.66
2022-09-30T12:21:49.615Z,100252.06
2022-09-30T12:24:23.387Z,100257.50
2022-09-30T12:26:52.865Z,100245.25
2022-09-30T12:29:40.947Z,100242.16
2022-09-30T12:32:33.230Z,100236.84
2022-09-30T12:35:10.130Z,100248.09
2022-09-30T12:37:57.722Z,100233.25
2022-09-30T12:40:35.267Z,100234.44
2022-09-30T12:43:22.427Z,100230.31
2022-09-30T12:46:06.023Z,100228.31
2022-09-30T12:48:36.791Z,100225.16
2022-09-30T12:51:05.810Z,100226.09
2022-09-30T12:53:34.848Z,100230.22
2022-09-30T12:56:07.316Z,100225.03
2022-09-30T12:58:38.644Z,100225.13
2022-09-30T13:01:08.668Z,100224.50
2022-09-30T13:03:49.334Z,100229.25
2022-09-30T13:06:20.702Z,100222.72
2022-09-30T13:09:05.168Z,100210.75
2022-09-30T13:11:37.935Z,100215.72
2022-09-30T13:14:26.222Z,100219.59
2022-09-30T13:17:25.434Z,100211.34
2022-09-30T13:19:54.274Z,100198.00
2022-09-30T13:22:43.112Z,100206.28
2022-09-30T13:25:15.059Z,100208.34
2022-09-30T13:27:44.268Z,100217.44
2022-09-30T13:30:36.139Z,100207.31
2022-09-30T13:33:22.888Z,100195.22
2022-09-30T13:35:52.793Z,100195.81
2022-09-30T13:38:24.363Z,100199.72
2022-09-30T13:41:03.660Z,100203.56
2022-09-30T13:43:34.649Z,100204.72
2022-09-30T13:46:09.341Z,100190.94
2022-09-30T13:48:39.550Z,100202.63
2022-09-30T13:51:09.607Z,100187.31
2022-09-30T13:53:39.218Z,100181.16
2022-09-30T13:56:08.764Z,100191.81
2022-09-30T13:59:06.648Z,100185.19
2022-09-30T14:01:49.067Z,100182.50
2022-09-30T14:04:42.913Z,100179.66
2022-09-30T14:07:16.685Z,100183.19
2022-09-30T14:09:57.078Z,100183.38
2022-09-30T14:12:49.566Z,100165.63
2022-09-30T14:15:37.354Z,100172.41
2022-09-30T14:18:22.947Z,100167.38
2022-09-30T14:21:02.689Z,100160.31
2022-09-30T14:23:30.413Z,100165.75
2022-09-30T14:26:00.987Z,100152.59
2022-09-30T14:28:33.564Z,100155.19
2022-09-30T14:31:13.237Z,100157.41
2022-09-30T14:33:43.784Z,100160.16
2022-09-30T14:36:14.990Z,100155.63
2022-09-30T14:38:45.666Z,100153.91
2022-09-30T14:41:18.484Z,100148.25
2022-09-30T14:43:47.075Z,100143.56
2022-09-30T14:46:19.276Z,100135.63
2022-09-30T14:48:50.481Z,100142.75
2022-09-30T14:51:23.583Z,100142.81
2022-09-30T14:53:55.948Z,100127.25
2022-09-30T14:56:29.417Z,100131.50
2022-09-30T14:58:59.256Z,100133.31
2022-09-30T15:01:30.587Z,100128.09
2022-09-30T15:04:01.257Z,100131.47
2022-09-30T15:06:30.784Z,100128.59
2022-09-30T15:09:02.413Z,100127.75
2022-09-30T15:11:30.108Z,100128.25
2022-09-30T15:14:00.465Z,100121.84
2022-09-30T15:16:29.988Z,100128.25
2022-09-30T15:19:00.020Z,100123.78
2022-09-30T15:21:29.190Z,100126.41
2022-09-30T15:23:57.837Z,100131.72
2022-09-30T15:26:26.486Z,100124.91
2022-09-30T15:28:54.596Z,100122.59
2022-09-30T15:31:25.589Z,100110.56
2022-09-30T15:34:05.595Z,100114.94
2022-09-30T15:36:33.954Z,100124.25
2022-09-30T15:39:01.934Z,100112.75
2022-09-30T15:41:29.532Z,100111.66
2022-09-30T15:44:00.296Z,100107.75
2022-09-30T15:46:30.799Z,100092.22
2022-09-30T15:49:01.559Z,100104.53
2022-09-30T15:51:36.200Z,100105.50
2022-09-30T15:54:28.484Z,100109.25
2022-09-30T15:56:56.554Z,100112.50
2022-09-30T15:59:24.738Z,100114.31
2022-09-30T16:01:53.050Z,100108.63
2022-09-30T16:04:24.900Z,100126.69
2022-09-30T16:06:55.280Z,100114.00
2022-09-30T16:09:27.111Z,100122.31
2022-09-30T16:12:00.928Z,100114.84
2022-09-30T16:14:30.674Z,100122.69
2022-09-30T16:17:01.073Z,100109.66
2022-09-30T16:19:30.565Z,100104.47
2022-09-30T16:21:59.920Z,100114.44
2022-09-30T16:25:03.973Z,100112.28
2022-09-30T16:27:33.014Z,100106.22
2022-09-30T16:30:01.591Z,100112.28
2022-09-30T16:32:32.472Z,100108.03
2022-09-30T16:35:00.146Z,100112.00
2022-09-30T16:37:29.480Z,100112.44
2022-09-30T16:40:00.283Z,100118.81
2022-09-30T16:42:27.761Z,100111.81
2022-09-30T16:44:57.081Z,100121.56
2022-09-30T16:47:24.895Z,100123.03
2022-09-30T16:49:52.387Z,100114.81
2022-09-30T16:52:19.892Z,100107.97
2022-09-30T16:54:49.151Z,100115.00
2022-09-30T16:57:16.874Z,100113.09
2022-09-30T16:59:45.269Z,100118.56
2022-09-30T17:02:16.491Z,100117.69
2022-09-30T17:04:45.333Z,100121.00
2022-09-30T17:07:14.848Z,100122.16
2022-09-30T17:09:43.934Z,100115.72
2022-09-30T17:12:13.138Z,100107.69
2022-09-30T17:14:42.928Z,100113.19
2022-09-30T17:17:13.465Z,100108.44
2022-09-30T17:19:41.722Z,100109.50
2022-09-30T17:22:09.202Z,100101.56
2022-09-30T17:24:36.725Z,100107.59
2022-09-30T17:27:04.403Z,100096.38
2022-09-30T17:29:33.320Z,100096.63
2022-09-30T17:32:01.449Z,100096.41
2022-09-30T17:34:30.146Z,100093.56
2022-09-30T17:36:57.776Z,100098.97
2022-09-30T17:39:26.722Z,100094.31
2022-09-30T17:42:11.993Z,100094.72
2022-09-30T17:44:40.842Z,100105.91
2022-09-30T17:47:08.332Z,100091.97
2022-09-30T17:49:36.825Z,100098.94
2022-09-30T17:52:04.935Z,100086.56
2022-09-30T17:54:33.003Z,100079.94
2022-09-30T17:57:00.523Z,100080.34
2022-09-30T17:59:28.868Z,100079.28
2022-09-30T18:01:57.833Z,100074.66
2022-09-30T18:04:25.910Z,100071.28
2022-09-30T18:06:53.974Z,100067.47
2022-09-30T18:09:21.542Z,100070.75
2022-09-30T18:11:49.139Z,100075.50
2022-09-30T18:14:17.035Z,100069.72
2022-09-30T18:16:44.950Z,100070.97
2022-09-30T18:21:46.444Z,100069.41
2022-09-30T18:24:14.095Z,100070.03
2022-09-30T18:26:41.634Z,100074.78
2022-09-30T18:29:09.162Z,100069.81
2022-09-30T18:31:38.551Z,100076.78
2022-09-30T18:34:07.215Z,100076.88
2022-09-30T18:36:37.182Z,100074.56
2022-09-30T18:39:05.127Z,100077.84
2022-09-30T18:41:35.342Z,100085.41
2022-09-30T18:44:03.440Z,100071.22
2022-09-30T18:46:31.249Z,100070.38
2022-09-30T18:48:58.929Z,100064.44
2022-09-30T18:51:26.480Z,100058.53
2022-09-30T18:53:57.654Z,100049.66
2022-09-30T18:56:26.487Z,100043.53
2022-09-30T18:58:54.105Z,100043.13
2022-09-30T19:01:21.807Z,100035.31
2022-09-30T19:03:49.456Z,100027.72
2022-09-30T19:06:17.004Z,100029.41
2022-09-30T19:08:44.562Z,100027.94
2022-09-30T19:11:15.534Z,100037.19
2022-09-30T19:13:43.972Z,100022.13
2022-09-30T19:16:12.167Z,100022.13
2022-09-30T19:18:40.135Z,100011.69
2022-09-30T19:21:09.910Z,100012.94
2022-09-30T19:23:37.575Z,100013.78
2022-09-30T19:26:05.856Z,100012.31
2022-09-30T19:28:36.521Z,100017.59
2022-09-30T19:31:08.318Z,100009.78
2022-09-30T19:33:40.679Z,100003.88
2022-09-30T19:36:15.335Z,100000.81
2022-09-30T19:38:45.004Z,99995.44
2022-09-30T19:41:15.187Z,99994.50
2022-09-30T19:43:46.465Z,99991.44
2022-09-30T19:46:14.089Z,99986.59
2022-09-30T19:48:42.255Z,99984.69
2022-09-30T19:51:12.110Z,99979.41
2022-09-30T19:53:41.999Z,99987.84
2022-09-30T19:56:12.800Z,99983.22
2022-09-30T19:58:43.024Z,99979.31
2022-09-30T20:01:13.175Z,99977.53
2022-09-30T20:03:42.078Z,99977.03
2022-09-30T20:06:12.863Z,99976.19
2022-09-30T20:08:40.452Z,99979.13
2022-09-30T20:11:09.775Z,99979.13
2022-09-30T20:13:37.614Z,99965.50
2022-09-30T20:16:05.998Z,99968.44
2022-09-30T20:18:36.699Z,99960.59
2022-09-30T20:21:09.411Z,99968.31
2022-09-30T20:23:38.839Z,99957.75
2022-09-30T20:26:07.016Z,99947.41
2022-09-30T20:28:35.040Z,99936.72
2022-09-30T20:31:06.664Z,99949.19
2022-09-30T20:33:37.046Z,99941.59
2022-09-30T20:36:04.931Z,99932.50
2022-09-30T20:38:33.322Z,99923.75
2022-09-30T20:41:02.340Z,99917.53
2022-09-30T20:43:31.129Z,99918.81
2022-09-30T20:46:01.294Z,99902.75
2022-09-30T20:48:33.360Z,99904.88
2022-09-30T20:51:05.529Z,99900.84
2022-09-30T20:53:33.254Z,99900.84
2022-09-30T20:56:02.268Z,99899.66
2022-09-30T20:58:29.758Z,99890.16
2022-09-30T21:01:02.066Z,99873.16
2022-09-30T21:03:31.665Z,99881.78
2022-09-30T21:05:59.347Z,99874.72
2022-09-30T21:08:28.216Z,99875.38
2022-09-30T21:10:56.253Z,99873.75
2022-09-30T21:13:23.735Z,99877.47
2022-09-30T21:16:00.343Z,99874.59
2022-09-30T21:18:28.558Z,99859.38
2022-09-30T21:20:58.731Z,99861.09
2022-09-30T21:23:28.125Z,99857.78
2022-09-30T21:25:58.860Z,99868.34
2022-09-30T21:28:26.907Z,99857.28
2022-09-30T21:30:54.883Z,99852.34
2022-09-30T21:33:22.580Z,99852.84
2022-09-30T21:35:50.653Z,99850.47
2022-09-30T21:38:18.145Z,99852.94
2022-09-30T21:40:47.440Z,99843.94
2022-09-30T21:43:14.946Z,99851.38
2022-09-30T21:45:42.502Z,99847.31
2022-09-30T21:48:11.564Z,99841.19
2022-09-30T21:50:39.076Z,99841.19
2022-09-30T21:53:06.601Z,99840.25
2022-09-30T21:55:34.186Z,99833.28
2022-09-30T21:58:03.031Z,99832.06
2022-09-30T22:00:30.543Z,99834.47
2022-09-30T22:02:58.668Z,99837.00
2022-09-30T22:05:26.180Z,99830.75
2022-09-30T22:07:53.705Z,99840.34
2022-09-30T22:10:21.213Z,99834.34
2022-09-30T22:12:49.964Z,99813.75
2022-09-30T22:15:18.811Z,99831.00
2022-09-30T22:17:46.309Z,99817.94
2022-09-30T22:20:13.832Z,99820.78
2022-09-30T22:22:41.561Z,99808.81
2022-09-30T22:25:10.046Z,99800.16
2022-09-30T22:27:37.863Z,99799.09
2022-09-30T22:30:07.088Z,99796.78
2022-09-30T22:32:35.996Z,99787.44
2022-09-30T22:35:21.516Z,99779.88
2022-09-30T22:38:07.147Z,99782.16
2022-09-30T22:40:34.867Z,99784.09
2022-09-30T22:43:03.255Z,99777.13
2022-09-30T22:45:30.834Z,99775.66
2022-09-30T22:48:00.287Z,99769.91
2022-09-30T22:50:28.187Z,99771.13
2022-09-30T22:52:55.697Z,99766.44
2022-09-30T22:55:23.228Z,99763.78
2022-09-30T22:57:50.751Z,99768.25
2022-09-30T23:00:18.342Z,99763.69
2022-09-30T23:02:45.840Z,99757.56
2022-09-30T23:05:15.280Z,99761.28
2022-09-30T23:07:42.769Z,99755.28
2022-09-30T23:10:10.839Z,99750.00
2022-09-30T23:12:38.391Z,99753.25
2022-09-30T23:15:07.292Z,99747.97
2022-09-30T23:17:35.680Z,99755.06
2022-09-30T23:20:03.240Z,99747.38
2022-09-30T23:22:32.121Z,99742.31
2022-09-30T23:25:01.982Z,99739.56
2022-09-30T23:27:29.499Z,99739.69
2022-09-30T23:29:56.992Z,99752.16
2022-09-30T23:32:24.479Z,99741.13
2022-09-30T23:34:52.302Z,99748.22
2022-09-30T23:37:19.820Z,99742.44
2022-09-30T23:39:48.683Z,99750.72
2022-09-30T23:42:16.180Z,99744.69
2022-09-30T23:44:43.686Z,99744.84
2022-09-30T23:47:19.989Z,99741.66
2022-09-30T23:49:47.522Z,99740.44
2022-09-30T23:52:15.349Z,99734.63
2022-09-30T23:54:43.261Z,99749.22
2022-09-30T23:57:12.560Z,99734.44
2022-09-30T23:59:40.158Z,99742.44
